Flight Track Log - Related Links

Times and Time Zones

All times are in EDT time to prevent confusion due to time zone crossing. See the SWA446 flight status page for this flight to view local times or setup timezone preferences in your user account.

Time Position Orientation Groundspeed Altitude Reporting Facility
EDT Latitude Longitude Course Direction KTS MPH feet Rate Location/Type
Fri 01:30:15 PM 35.8833 -114.2194 287° West  Level FlightAware Approximate
Fri 01:31:15 PM 35.9000 -114.0835 284° West  Level FlightAware Approximate
Fri 01:32:04 PM 36.1058 -115.1522 69° East 152 175 3,300  Level Los Angeles Center
Fri 01:33:36 PM 36.1344 -115.0619 83° East 221 254 6,100 2,075 Climbing Los Angeles Center
Fri 01:34:43 PM 36.1439 -114.9614 85° East 277 319 8,800 2,471 Climbing Los Angeles Center
Fri 01:35:18 PM 36.1475 -114.9047 105° East 307 353 10,300 2,337 Climbing Los Angeles Center
Fri 01:36:18 PM 36.1233 -114.7922 105° East 327 376 12,500 2,727 Climbing Los Angeles Center
Fri 01:37:19 PM 36.0969 -114.6692 105° East 346 398 15,800 3,100 Climbing Los Angeles Center
Fri 01:38:18 PM 36.0683 -114.5386 106° East 370 426 18,700 2,824 Climbing Los Angeles Center
Fri 01:39:18 PM 36.0372 -114.4031 105° East 389 448 21,400 2,500 Climbing Los Angeles Center
Fri 01:40:18 PM 36.0058 -114.2575 106° East 411 473 23,700 2,300 Climbing Los Angeles Center
Fri 01:41:18 PM 35.9700 -114.1044 106° East 440 506 26,000 2,100 Climbing Los Angeles Center
Fri 01:42:18 PM 35.9339 -113.9489 100° East 457 526 27,900 1,850 Climbing Los Angeles Center
Fri 01:43:18 PM 35.9078 -113.7725 102° East 468 539 29,700 1,750 Climbing Los Angeles Center
Fri 01:44:18 PM 35.8794 -113.6017 103° East 488 562 31,400 1,800 Climbing Los Angeles Center
Fri 01:45:18 PM 35.8511 -113.4489 101° East 502 578 33,300 1,800 Climbing Los Angeles Center
Fri 01:46:18 PM 35.8242 -113.2806 101° East 508 585 35,000 1,600 Climbing Los Angeles Center
Fri 01:47:18 PM 35.7972 -113.1125 101° East 503 579 36,500 1,400 Climbing Los Angeles Center
Fri 01:48:18 PM 35.7700 -112.9419 101° East 503 579 37,800 1,250 Climbing Los Angeles Center
Fri 01:49:18 PM 35.7425 -112.7717 102° East 503 579 39,000 362 Climbing Los Angeles Center
Fri 01:51:37 PM 35.6753 -112.3806 101° East 486 559 39,000  Level Albuquerque Center
Fri 01:52:37 PM 35.6489 -112.2153 102° East 486 559 39,000  Level Albuquerque Center
Fri 01:53:37 PM 35.6200 -112.0500 101° East 491 565 39,000  Level Albuquerque Center
Fri 01:54:37 PM 35.5947 -111.8875 92° East 491 565 39,000  Level Albuquerque Center
Fri 01:55:37 PM 35.5886 -111.7186 92° East 491 565 39,000  Level Albuquerque Center
Fri 01:56:37 PM 35.5842 -111.5525 93° East 491 565 39,000  Level Albuquerque Center
Fri 01:57:37 PM 35.5775 -111.3811 94° East 491 565 39,000  Level Albuquerque Center
Fri 01:58:37 PM 35.5683 -111.2144 91° East 491 565 39,000  Level Albuquerque Center
Fri 01:59:37 PM 35.5653 -111.0508 92° East 491 565 39,000  Level Albuquerque Center
Fri 02:00:37 PM 35.5614 -110.9003 93° East 485 558 39,000  Level Albuquerque Center
Fri 02:01:37 PM 35.5542 -110.7186 93° East 479 551 39,000  Level Albuquerque Center
Fri 02:02:37 PM 35.5481 -110.5575 92° East 479 551 39,000  Level Albuquerque Center
Fri 02:03:37 PM 35.5436 -110.4067 93° East 479 551 39,000  Level Albuquerque Center
Fri 02:04:37 PM 35.5372 -110.2431 92° East 479 551 39,000 -600 Level Albuquerque Center
Fri 02:05:37 PM 35.5311 -110.0617 93° East 479 551 37,800 -1,000 Descending Albuquerque Center
Fri 02:06:37 PM 35.5242 -109.8931 94° East 484 557 37,000 -400 Descending Albuquerque Center
Fri 02:07:37 PM 35.5150 -109.7419 93° East 484 557 37,000  Level Albuquerque Center
Fri 02:08:37 PM 35.5081 -109.5581 93° East 484 557 37,000  Level Albuquerque Center
Fri 02:09:37 PM 35.5006 -109.3922 93° East 490 564 37,000  Level Albuquerque Center
Fri 02:10:37 PM 35.4928 -109.2236 94° East 490 564 37,000  Level Albuquerque Center
Fri 02:11:37 PM 35.4847 -109.0728 94° East 484 557 37,000  Level Albuquerque Center
Fri 02:12:37 PM 35.4744 -108.8889 101° East 484 557 37,000  Level Albuquerque Center
Fri 02:13:37 PM 35.4472 -108.7253 105° East 484 557 37,000  Level Albuquerque Center
Fri 02:14:37 PM 35.4156 -108.5819 104° East 484 557 37,000  Level Albuquerque Center
Fri 02:15:37 PM 35.3797 -108.4058 103° East 484 557 37,000  Level Albuquerque Center
Fri 02:16:37 PM 35.3494 -108.2475 105° East 484 557 37,000  Level Albuquerque Center
Fri 02:17:37 PM 35.3153 -108.0867 104° East 484 557 37,000  Level Albuquerque Center
Fri 02:18:37 PM 35.2867 -107.9464 105° East 472 543 37,000  Level Albuquerque Center
Fri 02:19:37 PM 35.2478 -107.7706 104° East 472 543 37,000  Level Albuquerque Center
Fri 02:20:37 PM 35.2150 -107.6078 104° East 477 549 37,000  Level Albuquerque Center
Fri 02:21:37 PM 35.1817 -107.4500 104° East 477 549 37,000  Level Albuquerque Center
Fri 02:22:37 PM 35.1506 -107.3028 101° East 482 555 37,000  Level Albuquerque Center
Fri 02:23:37 PM 35.1211 -107.1250 90° East 482 555 37,000  Level Albuquerque Center
Fri 02:24:37 PM 35.1206 -106.9600 89° East 488 562 37,000  Level Albuquerque Center
Fri 02:25:37 PM 35.1219 -106.8050 90° East 488 562 37,000  Level Albuquerque Center
Fri 02:26:37 PM 35.1211 -106.6400 89° East 495 570 37,000  Level Albuquerque Center
Fri 02:27:37 PM 35.1222 -106.4725 91° East 490 564 37,000  Level Albuquerque Center
Fri 02:28:37 PM 35.1208 -106.3022 91° East 490 564 37,000  Level Albuquerque Center
Fri 02:29:37 PM 35.1192 -106.1372 91° East 496 571 37,000  Level Albuquerque Center
Fri 02:30:37 PM 35.1175 -105.9697 89° East 496 571 37,000  Level Albuquerque Center
Fri 02:31:37 PM 35.1194 -105.8019 92° East 496 571 37,000  Level Albuquerque Center
Fri 02:32:37 PM 35.1150 -105.6192 89° East 496 571 37,000  Level Albuquerque Center
Fri 02:33:37 PM 35.1164 -105.4492 90° East 491 565 37,000  Level Albuquerque Center
Fri 02:34:37 PM 35.1158 -105.2867 91° East 491 565 37,000  Level Albuquerque Center
Fri 02:35:37 PM 35.1128 -105.1192 73° East 486 559 37,000  Level Albuquerque Center
Fri 02:36:37 PM 35.1517 -104.9631 58° Northeast 479 551 37,000  Level Albuquerque Center
Fri 02:37:37 PM 35.2239 -104.8211 59° Northeast 473 544 37,000  Level Albuquerque Center
Fri 02:38:37 PM 35.2936 -104.6814 59° Northeast 484 557 37,000  Level Albuquerque Center
Fri 02:39:37 PM 35.3636 -104.5392 59° Northeast 484 557 37,000  Level Albuquerque Center
Fri 02:40:37 PM 35.4272 -104.4094 58° Northeast 489 563 37,000  Level Albuquerque Center
Fri 02:41:37 PM 35.4986 -104.2689 59° Northeast 489 563 37,000  Level Albuquerque Center
Fri 02:42:37 PM 35.5681 -104.1283 59° Northeast 484 557 37,000  Level Albuquerque Center
Fri 02:43:37 PM 35.6450 -103.9719 60° Northeast 484 557 37,000  Level Albuquerque Center
Fri 02:44:37 PM 35.7139 -103.8258 59° Northeast 484 557 37,000  Level Albuquerque Center
Fri 02:45:37 PM 35.7847 -103.6817 58° Northeast 484 557 37,000  Level Albuquerque Center
Fri 02:46:37 PM 35.8553 -103.5400 60° Northeast 490 564 37,000  Level Albuquerque Center
Fri 02:47:37 PM 35.9256 -103.3906 59° Northeast 490 564 37,000  Level Albuquerque Center
Fri 02:48:37 PM 35.9978 -103.2406 59° Northeast 495 570 37,000  Level Albuquerque Center
Fri 02:49:37 PM 36.0697 -103.0928 61° Northeast 502 578 37,000  Level Albuquerque Center
Fri 02:50:37 PM 36.1375 -102.9425 60° Northeast 502 578 37,000  Level Albuquerque Center
Fri 02:51:37 PM 36.1992 -102.8103 59° Northeast 502 578 37,000  Level Albuquerque Center
Fri 02:52:37 PM 36.2728 -102.6594 60° Northeast 502 578 37,000  Level Albuquerque Center
Fri 02:54:42 PM 36.4300 -102.3211 59° Northeast 505 581 37,000  Level Kansas City Center
Fri 02:55:42 PM 36.5003 -102.1731 60° Northeast 505 581 37,000  Level Kansas City Center
Fri 02:56:42 PM 36.5703 -102.0222 60° Northeast 505 581 37,000  Level Kansas City Center
Fri 02:57:42 PM 36.6406 -101.8686 61° Northeast 505 581 37,000  Level Kansas City Center
Fri 02:58:42 PM 36.7081 -101.7194 61° Northeast 500 575 37,000  Level Kansas City Center
Fri 02:59:42 PM 36.7733 -101.5725 61° Northeast 494 568 37,000  Level Kansas City Center
Fri 03:00:42 PM 36.8381 -101.4281 60° Northeast 482 555 37,000  Level Kansas City Center
Fri 03:01:42 PM 36.8978 -101.2983 61° Northeast 482 555 37,000  Level Kansas City Center
Fri 03:02:42 PM 36.9694 -101.1381 61° Northeast 477 549 37,000  Level Kansas City Center
Fri 03:03:42 PM 37.0336 -100.9953 55° Northeast 482 555 37,000  Level Kansas City Center
Fri 03:04:42 PM 37.1028 -100.8711 53° Northeast 477 549 37,000  Level Kansas City Center
Fri 03:05:42 PM 37.1808 -100.7394 53° Northeast 470 541 37,000  Level Kansas City Center
Fri 03:06:42 PM 37.2678 -100.5925 54° Northeast 476 548 37,000  Level Kansas City Center
Fri 03:07:42 PM 37.3433 -100.4600 54° Northeast 476 548 37,000  Level Kansas City Center
Fri 03:08:42 PM 37.4117 -100.3397 53° Northeast 476 548 37,000  Level Kansas City Center
Fri 03:09:42 PM 37.4958 -100.1997 49° Northeast 466 536 37,000  Level Kansas City Center
Fri 03:10:42 PM 37.5786 -100.0775 50° Northeast 461 531 37,000  Level Kansas City Center
Fri 03:11:42 PM 37.6525 -99.9675 51° Northeast 452 520 37,000  Level Kansas City Center
Fri 03:12:42 PM 37.7403 -99.8294 50° Northeast 457 526 37,000  Level Kansas City Center
Fri 03:13:42 PM 37.8208 -99.7064 50° Northeast 457 526 37,000  Level Kansas City Center
Fri 03:14:42 PM 37.9033 -99.5831 49° Northeast 457 526 37,000  Level Kansas City Center
Fri 03:15:42 PM 37.9767 -99.4747 50° Northeast 457 526 37,000  Level Kansas City Center
Fri 03:16:42 PM 38.0611 -99.3486 47° Northeast 457 526 37,000  Level Kansas City Center
Fri 03:17:42 PM 38.1492 -99.2300 46° Northeast 462 532 37,000  Level Kansas City Center
Fri 03:18:42 PM 38.2417 -99.1092 45° Northeast 468 539 37,000  Level Kansas City Center
Fri 03:19:42 PM 38.3358 -98.9906 44° Northeast 468 539 37,000  Level Kansas City Center
Fri 03:20:42 PM 38.4297 -98.8742 42° Northeast 468 539 37,000  Level Kansas City Center
Fri 03:21:43 PM 38.5256 -98.7631 44° Northeast 468 539 37,000  Level Kansas City Center
Fri 03:22:42 PM 38.6217 -98.6436 46° Northeast 468 539 37,000  Level Kansas City Center
Fri 03:23:42 PM 38.7133 -98.5239 51° Northeast 473 544 37,000  Level Kansas City Center
Fri 03:24:42 PM 38.7947 -98.3950 56° Northeast 473 544 37,000  Level Kansas City Center
Fri 03:25:42 PM 38.8678 -98.2550 57° Northeast 473 544 37,000  Level Kansas City Center
Fri 03:26:42 PM 38.9389 -98.1144 56° Northeast 468 539 37,000 -100 Level Kansas City Center
Fri 03:27:42 PM 39.0183 -97.9633 63° Northeast 468 539 36,800 -600 Descending Kansas City Center
Fri 03:28:42 PM 39.0767 -97.8164 68° East 456 525 35,800 -900 Descending Kansas City Center
Fri 03:29:42 PM 39.1247 -97.6633 67° East 457 526 35,000 -400 Descending Kansas City Center
Fri 03:30:42 PM 39.1744 -97.5103 68° East 462 532 35,000  Level Kansas City Center
Fri 03:31:42 PM 39.2175 -97.3728 67° East 462 532 35,000  Level Kansas City Center
Fri 03:32:42 PM 39.2669 -97.2219 69° East 462 532 35,000  Level Kansas City Center
Fri 03:33:42 PM 39.3186 -97.0519 68° East 457 526 35,000  Level Kansas City Center
Fri 03:34:42 PM 39.3653 -96.9033 68° East 451 519 35,000  Level Kansas City Center
Fri 03:35:42 PM 39.4075 -96.7706 68° East 446 513 35,000  Level Kansas City Center
Fri 03:36:42 PM 39.4583 -96.6053 69° East 446 513 35,000  Level Kansas City Center
Fri 03:37:42 PM 39.5028 -96.4533 68° East 451 519 35,000  Level Kansas City Center
Fri 03:38:42 PM 39.5508 -96.3011 69° East 451 519 35,000 -450 Level Kansas City Center
Fri 03:39:42 PM 39.5925 -96.1622 68° East 451 519 34,100 -1,000 Descending Kansas City Center
Fri 03:40:42 PM 39.6469 -95.9911 69° East 451 519 33,000 -1,050 Descending Kansas City Center
Fri 03:41:42 PM 39.6903 -95.8408 68° East 451 519 32,000 -1,000 Descending Kansas City Center
Fri 03:42:42 PM 39.7356 -95.6933 70° East 446 513 31,000 -500 Descending Kansas City Center
Fri 03:43:42 PM 39.7722 -95.5642 68° East 435 501 31,000 -350 Level Kansas City Center
Fri 03:44:42 PM 39.8214 -95.4056 70° East 430 495 30,300 -850 Descending Kansas City Center
Fri 03:45:42 PM 39.8619 -95.2628 65° Northeast 430 495 29,300 -985 Descending Kansas City Center
Fri 03:47:57 PM 39.9622 -94.9756 North 426 490 27,100 -985 Descending Minneapolis Center
Fri 03:48:57 PM 40.0750 -94.9511 353° North 373 429 26,100 -1,000 Descending Minneapolis Center
Fri 03:49:57 PM 40.1889 -94.9700 351° North 361 415 25,100 -1,462 Descending Minneapolis Center
Fri 03:50:56 PM 40.2989 -94.9917 353° North 376 433 23,200 -1,900 Descending Minneapolis Center
Fri 03:51:57 PM 40.4108 -95.0108 351° North 395 455 21,300 -1,884 Descending Minneapolis Center
Fri 03:52:57 PM 40.5167 -95.0325 351° North 395 455 19,400 -1,850 Descending Minneapolis Center
Fri 03:53:57 PM 40.6244 -95.0542 353° North 390 449 17,600 -1,695 Descending Minneapolis Center
Fri 03:55:08 PM 40.7656 -95.0769 318° Northwest 375 432 15,700 -1,563 Descending Minneapolis Center
Fri 03:55:56 PM 40.8144 -95.1358 319° Northwest 370 426 14,500 -1,376 Descending Minneapolis Center
Fri 03:56:57 PM 40.8881 -95.2200 320° Northwest 347 399 13,200 -1,289 Descending Minneapolis Center
Fri 03:57:57 PM 40.9575 -95.2961 318° Northwest 342 394 11,900 -1,350 Descending Minneapolis Center
Fri 03:58:57 PM 41.0289 -95.3806 318° Northwest 342 394 10,500 -1,453 Descending Minneapolis Center
Fri 04:00:05 PM 41.1183 -95.4878 317° Northwest 329 379 8,800 -1,574 Descending Minneapolis Center
Fri 04:00:59 PM 41.1794 -95.5642 317° Northwest 326 375 7,300 -1,617 Descending Minneapolis Center
Fri 04:02:00 PM 41.2464 -95.6464 318° Northwest 331 381 5,700 -1,271 Descending Minneapolis Center
Fri 04:02:57 PM 41.2992 -95.7092 315° West 330 380 4,800 -821 Descending Minneapolis Center
Fri 04:03:57 PM 41.3581 -95.7886 303° West 322 371 4,100 -850 Descending Minneapolis Center
Fri 04:04:57 PM 41.4017 -95.8786 253° West 300 345 3,100 -857 Descending Minneapolis Center
Fri 04:05:56 PM 41.3856 -95.9497 172° South 221 254 2,400 -550 Descending Minneapolis Center
Fri 04:06:57 PM 41.3503 -95.9428 145° Southeast 128 147 2,000 -595 Descending Minneapolis Center
Fri 04:07:57 PM 41.3197 -95.9139 145° Southeast 89 102 1,200 -800 Descending Minneapolis Center

Login

Don't have an account? Register now (free) for customized features, flight alerts, and more!